.
WxDataArchive / Data Records for 2010-09-05
2010-09-04 September 2010 2010-09-06

Data Records for Sunday, 05 September 2010

Time	Temp	Chill	HIndex	Humid	Dewpt	 Wind 	HiWind	WindDir	Rain 	Barom 
-----	----	-----	------	-----	-----	------	------	-------	-----	----- 
00:00	50.7	50.7	50.7	82	45.4	0	0	---	0.00	29.996 
00:05	50.5	50.5	50.5	83	45.5	0	0	---	0.00	29.996 
00:10	50.5	50.5	50.5	83	45.5	0	0	---	0.00	29.996 
00:15	50.4	50.4	50.4	83	45.4	0	0	---	0.00	30.003 
00:20	50.4	50.4	50.4	83	45.4	0	0	---	0.00	30.003 
00:25	50.2	50.2	50.2	84	45.6	0	0	---	0.00	30.003 
00:30	50.2	50.2	50.2	84	45.6	0	0	---	0.00	30.005 
00:35	50.2	50.2	50.2	84	45.6	0	0	---	0.00	30.005 
00:40	50.2	50.2	50.2	84	45.6	0	0	---	0.00	30.005 
00:45	50.1	50.1	50.1	84	45.5	0	0	---	0.00	30.005 
00:50	50.2	50.2	50.2	85	45.9	0	0	---	0.00	30.005 
00:55	50.2	50.2	50.2	85	45.9	0	0	---	0.00	30.005 
01:00	50.2	50.2	50.2	85	45.9	0	0	---	0.00	30.008 
01:05	50.1	50.1	50.1	86	46.1	0	0	---	0.00	30.008 
01:10	50.1	50.1	50.1	86	46.1	0	0	---	0.00	30.008 
01:15	49.9	49.9	49.9	86	45.9	0	0	---	0.00	30.003 
01:20	49.9	49.9	49.9	86	45.9	0	0	---	0.00	30.003 
01:25	49.9	49.9	49.9	86	45.9	0	0	---	0.00	30.003 
01:30	49.9	49.9	49.9	86	45.9	0	0	---	0.00	30.000 
01:35	50.1	50.1	50.1	87	46.4	0	0	---	0.00	30.000 
01:40	50.1	50.1	50.1	87	46.4	0	0	---	0.00	30.000 
01:45	50.2	50.2	50.2	88	46.8	0	0	---	0.00	30.001 
01:50	50.1	50.1	50.1	88	46.7	0	0	---	0.00	30.001 
01:55	50.1	50.1	50.1	88	46.7	0	0	---	0.00	30.001 
02:00	50.1	50.1	50.1	88	46.7	0	0	---	0.00	30.004 
02:05	49.9	49.9	49.9	88	46.5	0	0	---	0.00	30.004 
02:10	49.9	49.9	49.9	88	46.5	0	0	---	0.00	30.004 
02:15	49.8	49.8	49.8	88	46.4	0	0	---	0.00	29.999 
02:20	49.6	49.6	49.6	88	46.2	0	0	---	0.00	29.999 
02:25	49.5	49.5	49.5	88	46.1	0	0	---	0.00	29.999 
02:30	49.4	49.4	49.4	88	46.0	0	0	---	0.00	30.002 
02:35	49.4	49.4	49.4	88	46.0	0	0	---	0.00	30.002 
02:40	49.2	49.2	49.2	88	45.8	0	0	---	0.00	30.002 
02:45	49.2	49.2	49.2	88	45.8	0	0	---	0.00	30.003 
02:50	49.1	49.1	49.1	89	46.0	0	0	---	0.00	30.003 
02:55	49.2	49.2	49.2	89	46.1	0	0	---	0.00	30.003 
03:00	49.2	49.2	49.2	89	46.1	0	0	---	0.00	30.002 
03:05	49.2	49.2	49.2	89	46.1	0	0	---	0.00	30.002 
03:10	49.1	49.1	49.1	89	46.0	0	0	---	0.00	30.002 
03:15	49.2	49.2	49.2	89	46.1	0	0	---	0.00	29.998 
03:20	49.1	49.1	49.1	89	46.0	0	0	---	0.00	29.998 
03:25	49.1	49.1	49.1	89	46.0	0	0	---	0.00	29.998 
03:30	48.9	48.9	48.9	89	45.8	0	0	---	0.00	29.998 
03:35	48.9	48.9	48.9	89	45.8	0	0	---	0.00	29.998 
03:40	48.8	48.8	48.8	89	45.7	0	0	---	0.00	29.998 
03:45	48.6	48.6	48.6	89	45.5	0	0	---	0.00	29.995 
03:50	48.6	48.6	48.6	89	45.5	0	0	---	0.00	29.995 
03:55	48.5	48.5	48.5	89	45.4	0	0	---	0.00	29.995 
04:00	48.3	48.3	48.3	89	45.2	0	0	---	0.00	29.996 
04:05	48.2	48.2	48.2	89	45.1	0	0	---	0.00	29.996 
04:10	48.2	48.2	48.2	89	45.1	0	0	---	0.00	29.996 
04:15	48.0	48.0	48.0	89	44.9	0	0	---	0.00	29.995 
04:20	48.0	48.0	48.0	90	45.2	0	0	---	0.00	29.995 
04:25	47.9	47.9	47.9	90	45.1	0	0	---	0.00	29.995 
04:30	47.7	47.7	47.7	90	44.9	0	0	---	0.00	29.994 
04:35	47.7	47.7	47.7	90	44.9	0	0	---	0.00	29.994 
04:40	47.7	47.7	47.7	91	45.2	0	0	---	0.00	29.994 
04:45	47.9	47.9	47.9	91	45.4	0	0	---	0.00	29.994 
04:50	47.9	47.9	47.9	91	45.4	0	0	---	0.00	29.994 
04:55	47.9	47.9	47.9	91	45.4	0	0	---	0.00	29.994 
05:00	47.9	47.9	47.9	91	45.4	0	0	---	0.00	29.994 
05:05	47.7	47.7	47.7	92	45.5	0	0	---	0.00	29.994 
05:10	47.9	47.9	47.9	92	45.7	0	0	---	0.00	29.994 
05:15	47.9	47.9	47.9	92	45.7	0	0	---	0.00	29.996 
05:20	48.0	48.0	48.0	92	45.8	0	0	---	0.00	29.996 
05:25	48.0	48.0	48.0	92	45.8	0	0	---	0.00	29.996 
05:30	48.0	48.0	48.0	92	45.8	0	0	---	0.00	29.994 
05:35	48.0	48.0	48.0	92	45.8	0	0	---	0.00	29.994 
05:40	48.0	48.0	48.0	92	45.8	0	0	---	0.00	29.994 
05:45	48.0	48.0	48.0	92	45.8	0	0	---	0.00	29.995 
05:50	48.0	48.0	48.0	92	45.8	0	0	---	0.00	29.995 
05:55	47.9	47.9	47.9	92	45.7	0	0	---	0.00	29.995 
06:00	47.9	47.9	47.9	92	45.7	0	0	---	0.00	29.995 
06:05	47.7	47.7	47.7	92	45.5	0	0	---	0.00	29.995 
06:10	47.6	47.6	47.6	92	45.4	0	0	---	0.00	29.995 
06:15	47.6	47.6	47.6	92	45.4	0	0	---	0.00	29.999 
06:20	47.4	47.4	47.4	92	45.2	0	0	---	0.00	29.999 
06:25	47.3	47.3	47.3	92	45.1	0	0	---	0.00	29.999 
06:30	47.3	47.3	47.3	92	45.1	0	0	---	0.00	30.005 
06:35	47.1	47.1	47.1	92	44.9	0	0	---	0.00	30.005 
06:40	47.1	47.1	47.1	92	44.9	0	0	---	0.00	30.005 
06:45	47.0	47.0	47.0	92	44.8	0	0	---	0.00	30.011 
06:50	47.0	47.0	47.0	92	44.8	0	0	---	0.00	30.011 
06:55	47.0	47.0	47.0	92	44.8	0	0	---	0.00	30.011 
07:00	47.0	47.0	47.0	93	45.1	0	0	---	0.00	30.013 
07:05	47.1	47.1	47.1	93	45.2	0	0	---	0.00	30.013 
07:10	47.3	47.3	47.3	93	45.4	0	0	---	0.00	30.013 
07:15	47.4	47.4	47.4	93	45.5	0	0	---	0.00	30.017 
07:20	47.6	47.6	47.6	93	45.7	0	0	---	0.00	30.017 
07:25	47.7	47.7	47.7	93	45.8	0	0	---	0.00	30.017 
07:30	47.9	47.9	47.9	92	45.7	0	0	---	0.00	30.025 
07:35	47.9	47.9	47.9	92	45.7	0	0	---	0.00	30.025 
07:40	48.0	48.0	48.0	92	45.8	0	0	---	0.00	30.025 
07:45	48.2	48.2	48.2	92	46.0	0	0	---	0.00	30.028 
07:50	48.3	48.3	48.3	92	46.1	0	0	---	0.00	30.028 
07:55	48.5	48.5	48.5	92	46.3	0	0	---	0.00	30.028 
08:00	48.8	48.8	48.8	92	46.6	0	0	---	0.00	30.031 
08:05	49.1	49.1	49.1	91	46.6	0	0	---	0.00	30.031 
08:10	49.5	49.5	49.5	91	47.0	0	0	---	0.00	30.031 
08:15	50.2	50.2	50.2	89	47.1	0	0	---	0.00	30.041 
08:20	51.0	51.0	51.0	88	47.6	0	1	292	0.00	30.041 
08:25	51.6	51.6	51.6	86	47.5	0	0	---	0.00	30.041 
08:30	52.0	52.0	52.0	83	47.0	0	1	292	0.00	30.043 
08:35	52.8	52.8	52.8	81	47.1	0	1	292	0.00	30.043 
08:40	53.3	53.3	53.3	79	47.0	0	1	292	0.00	30.043 
08:45	53.9	53.9	53.9	77	46.9	0	1	292	0.00	30.043 
08:50	54.4	54.4	54.4	75	46.6	0	1	292	0.00	30.043 
08:55	54.8	54.8	54.8	74	46.7	0	1	292	0.00	30.043 
09:00	55.1	55.1	55.1	73	46.6	0	1	292	0.00	30.042 
09:05	55.6	55.6	55.6	72	46.7	0	1	292	0.00	30.042 
09:10	56.0	56.0	56.0	71	46.7	0	2	292	0.00	30.042 
09:15	56.5	56.5	56.5	70	46.8	0	2	292	0.00	30.046 
09:20	56.7	56.7	56.7	69	46.6	0	2	292	0.00	30.046 
09:25	57.2	57.2	57.2	68	46.7	1	2	292	0.00	30.046 
09:30	57.8	57.8	57.8	67	46.9	0	2	292	0.00	30.047 
09:35	58.3	58.3	58.3	65	46.6	1	3	292	0.00	30.047 
09:40	58.9	58.9	58.9	65	47.2	0	3	292	0.00	30.047 
09:45	59.5	59.5	59.5	62	46.5	1	3	292	0.00	30.054 
09:50	60.1	60.1	60.1	62	47.0	1	3	292	0.00	30.054 
09:55	60.5	60.5	60.5	60	46.5	1	3	315	0.00	30.054 
10:00	61.0	61.0	61.0	59	46.6	1	3	292	0.00	30.050 
10:05	61.6	61.6	61.6	61	48.0	0	2	292	0.00	30.050 
10:10	62.1	62.1	62.1	58	47.1	0	2	292	0.00	30.050 
10:15	62.9	62.9	62.9	56	47.0	1	3	292	0.00	30.055 
10:20	63.4	63.4	63.4	54	46.5	1	3	248	0.00	30.055 
10:25	64.0	64.0	64.0	53	46.5	1	2	248	0.00	30.055 
10:30	64.3	64.3	64.3	51	45.8	1	3	248	0.00	30.055 
10:35	64.8	64.8	64.8	50	45.7	1	3	248	0.00	30.055 
10:40	65.0	65.0	65.0	49	45.4	1	3	315	0.00	30.055 
10:45	65.3	65.3	65.3	48	45.1	2	4	315	0.00	30.055 
10:50	65.5	65.5	65.5	47	44.7	1	5	292	0.00	30.055 
10:55	66.0	66.0	66.0	46	44.6	1	4	270	0.00	30.055 
11:00	66.3	66.3	66.3	44	43.7	2	3	270	0.00	30.053 
11:05	66.1	66.1	66.1	45	44.1	2	5	270	0.00	30.053 
11:10	66.3	66.3	66.3	45	44.3	1	4	270	0.00	30.053 
11:15	66.6	66.6	66.6	43	43.4	2	4	270	0.00	30.058 
11:20	66.9	66.9	66.9	44	44.3	1	3	315	0.00	30.058 
11:25	67.1	67.1	67.1	42	43.2	2	4	270	0.00	30.058 
11:30	67.3	67.3	67.3	42	43.4	1	5	270	0.00	30.059 
11:35	67.3	67.3	67.3	43	44.0	1	3	270	0.00	30.059 
11:40	67.8	67.8	67.8	42	43.9	2	5	270	0.00	30.059 
11:45	67.8	67.8	67.8	41	43.2	2	5	270	0.00	30.058 
11:50	67.4	67.4	67.4	41	42.9	1	4	270	0.00	30.058 
11:55	67.6	67.6	67.6	42	43.7	2	6	270	0.00	30.058 
12:00	68.1	68.1	68.1	42	44.1	1	3	270	0.00	30.054 
12:05	68.6	68.6	68.6	41	44.0	1	4	248	0.00	30.054 
12:10	68.6	68.6	68.6	42	44.6	1	4	292	0.00	30.054 
12:15	69.3	69.3	69.3	40	43.9	1	4	292	0.00	30.055 
12:20	69.1	69.1	69.1	39	43.1	2	4	292	0.00	30.055 
12:25	69.3	69.3	69.3	41	44.6	1	4	292	0.00	30.055 
12:30	69.6	69.6	69.6	38	42.9	2	6	248	0.00	30.053 
12:35	69.3	69.3	69.3	36	41.2	2	5	270	0.00	30.053 
12:40	69.3	69.3	69.3	39	43.3	2	4	292	0.00	30.053 
12:45	69.4	69.4	69.4	39	43.4	2	5	270	0.00	30.054 
12:50	69.3	69.3	69.3	39	43.3	2	7	270	0.00	30.054 
12:55	69.4	69.4	69.4	38	42.7	2	7	270	0.00	30.054 
13:00	69.4	69.4	69.4	39	43.4	2	4	270	0.00	30.052 
13:05	69.9	69.9	69.9	40	44.5	2	4	270	0.00	30.052 
13:10	70.3	70.3	70.3	41	45.5	1	3	270	0.00	30.052 
13:15	70.9	70.9	70.9	39	44.7	1	3	270	0.00	30.042 
13:20	70.1	70.1	70.1	38	43.3	2	7	315	0.00	30.042 
13:25	69.9	69.9	69.9	38	43.1	2	3	270	0.00	30.042 
13:30	70.4	70.4	70.4	39	44.2	1	2	292	0.00	30.037 
13:35	71.1	71.1	71.1	37	43.5	2	5	248	0.00	30.037 
13:40	71.3	71.3	71.3	36	43.0	1	4	270	0.00	30.037 
13:45	70.6	70.6	70.6	39	44.4	2	5	270	0.00	30.035 
13:50	70.4	70.4	70.4	39	44.2	1	4	315	0.00	30.035 
13:55	70.8	70.8	70.8	39	44.6	2	5	292	0.00	30.035 
14:00	71.5	71.5	71.5	39	45.2	1	3	292	0.00	30.027 
14:05	72.1	72.1	72.1	38	45.1	1	4	292	0.00	30.027 
14:10	72.0	72.0	72.0	39	45.7	1	3	292	0.00	30.027 
14:15	72.3	72.3	72.3	37	44.6	1	2	248	0.00	30.020 
14:20	72.5	72.5	72.5	36	44.0	2	4	248	0.00	30.020 
14:25	72.5	72.5	72.5	37	44.7	1	6	248	0.00	30.020 
14:30	72.3	72.3	72.3	37	44.6	2	5	270	0.00	30.017 
14:35	72.0	72.0	72.0	35	42.8	0	2	270	0.00	30.017 
14:40	72.1	72.1	72.1	39	45.8	0	2	270	0.00	30.017 
14:45	72.8	72.8	72.8	38	45.7	1	5	270	0.00	30.009 
14:50	73.0	73.0	73.0	36	44.5	2	5	292	0.00	30.009 
14:55	73.2	73.2	73.2	35	43.9	1	3	270	0.00	30.009 
15:00	73.5	73.5	73.5	35	44.2	0	1	270	0.00	30.010 
15:05	73.9	73.9	73.9	34	43.7	1	4	270	0.00	30.010 
15:10	73.7	73.7	73.7	35	44.3	1	4	270	0.00	30.010 
15:15	74.0	74.0	74.0	37	46.1	1	2	248	0.00	30.007 
15:20	73.9	73.9	73.9	34	43.7	1	4	270	0.00	30.007 
15:25	73.0	73.0	73.0	35	43.7	0	2	270	0.00	30.007 
15:30	73.0	73.0	73.0	37	45.2	0	1	315	0.00	30.002 
15:35	73.5	73.5	73.5	34	43.4	2	6	270	0.00	30.002 
15:40	73.3	73.3	73.3	35	44.0	1	5	270	0.00	30.002 
15:45	73.3	73.3	73.3	36	44.7	1	3	270	0.00	30.002 
15:50	73.5	73.5	73.5	36	44.9	1	3	270	0.00	30.002 
15:55	73.9	73.9	73.9	36	45.2	0	3	135	0.00	30.002 
16:00	73.7	73.7	73.7	34	43.6	1	4	270	0.00	29.998 
16:05	73.7	73.7	73.7	38	46.5	0	1	315	0.00	29.998 
16:10	73.7	73.7	73.7	35	44.3	1	6	270	0.00	29.998 
16:15	73.9	73.9	73.9	34	43.7	1	4	270	0.00	29.989 
16:20	73.5	73.5	73.5	33	42.6	2	4	270	0.00	29.989 
16:25	73.7	73.7	73.7	35	44.3	0	2	315	0.00	29.989 
16:30	74.0	74.0	74.0	35	44.6	0	2	315	0.00	29.982 
16:35	74.2	74.2	74.2	35	44.8	1	3	315	0.00	29.982 
16:40	74.2	74.2	74.2	35	44.8	1	4	270	0.00	29.982 
16:45	74.4	74.4	74.4	34	44.2	0	1	270	0.00	29.978 
16:50	74.2	74.2	74.2	34	44.0	1	3	292	0.00	29.978 
16:55	74.2	74.2	74.2	34	44.0	1	4	292	0.00	29.978 
17:00	74.2	74.2	74.2	36	45.5	1	3	292	0.00	29.980 
17:05	74.2	74.2	74.2	36	45.5	1	4	292	0.00	29.980 
17:10	74.2	74.2	74.2	35	44.8	1	2	270	0.00	29.980 
17:15	74.0	74.0	74.0	36	45.3	1	4	292	0.00	29.974 
17:20	74.2	74.2	74.2	37	46.2	1	3	292	0.00	29.974 
17:25	74.0	74.0	74.0	35	44.6	1	4	270	0.00	29.974 
17:30	74.0	74.0	74.0	37	46.1	0	2	270	0.00	29.975 
17:35	74.2	74.2	74.2	36	45.5	0	3	270	0.00	29.975 
17:40	74.4	74.4	74.4	35	44.9	0	2	270	0.00	29.975 
17:45	74.2	74.2	74.2	35	44.8	1	3	270	0.00	29.975 
17:50	74.0	74.0	74.0	37	46.1	0	1	270	0.00	29.975 
17:55	74.0	74.0	74.0	37	46.1	1	3	338	0.00	29.975 
18:00	74.0	74.0	74.0	37	46.1	0	2	270	0.00	29.971 
18:05	73.9	73.9	73.9	39	47.4	1	2	292	0.00	29.971 
18:10	73.7	73.7	73.7	38	46.5	0	2	292	0.00	29.971 
18:15	73.3	73.3	73.3	40	47.5	1	2	292	0.00	29.971 
18:20	73.2	73.2	73.2	40	47.4	1	3	248	0.00	29.971 
18:25	73.2	73.2	73.2	39	46.7	0	3	270	0.00	29.971 
18:30	73.2	73.2	73.2	39	46.7	0	3	270	0.00	29.972 
18:35	73.2	73.2	73.2	39	46.7	0	2	270	0.00	29.972 
18:40	72.8	72.8	72.8	40	47.1	0	2	270	0.00	29.972 
18:45	72.5	72.5	72.5	42	48.1	0	2	270	0.00	29.972 
18:50	72.5	72.5	72.5	42	48.1	1	3	270	0.00	29.972 
18:55	72.3	72.3	72.3	41	47.3	1	3	292	0.00	29.972 
19:00	72.1	72.1	72.1	42	47.7	0	2	292	0.00	29.976 
19:05	72.0	72.0	72.0	42	47.6	0	2	292	0.00	29.976 
19:10	71.8	71.8	71.8	43	48.1	0	2	270	0.00	29.976 
19:15	71.6	71.6	71.6	43	47.9	0	2	270	0.00	29.973 
19:20	71.3	71.3	71.3	43	47.6	0	3	270	0.00	29.973 
19:25	71.1	71.1	71.1	43	47.5	0	1	248	0.00	29.973 
19:30	70.9	70.9	70.9	45	48.5	0	1	270	0.00	29.975 
19:35	70.8	70.8	70.8	45	48.4	0	1	270	0.00	29.975 
19:40	70.4	70.4	70.4	45	48.0	0	1	270	0.00	29.975 
19:45	70.3	70.3	70.3	45	47.9	0	1	270	0.00	29.981 
19:50	69.9	69.9	69.9	46	48.2	0	2	270	0.00	29.981 
19:55	69.6	69.6	69.6	46	47.9	0	1	270	0.00	29.981 
20:00	69.4	69.4	69.4	47	48.3	0	1	270	0.00	29.977 
20:05	69.3	69.3	69.3	46	47.6	0	1	270	0.00	29.977 
20:10	69.3	69.3	69.3	47	48.2	0	1	270	0.00	29.977 
20:15	69.1	69.1	69.1	47	48.0	0	0	---	0.00	29.975 
20:20	68.8	68.8	68.8	48	48.3	0	0	---	0.00	29.975 
20:25	68.4	68.4	68.4	49	48.5	0	0	---	0.00	29.975 
20:30	67.9	67.9	67.9	50	48.6	0	0	---	0.00	29.975 
20:35	67.4	67.4	67.4	52	49.2	0	0	---	0.00	29.975 
20:40	66.9	66.9	66.9	52	48.7	0	0	---	0.00	29.975 
20:45	66.4	66.4	66.4	53	48.7	0	0	---	0.00	29.972 
20:50	66.1	66.1	66.1	55	49.5	0	0	---	0.00	29.972 
20:55	65.6	65.6	65.6	56	49.5	0	0	---	0.00	29.972 
21:00	65.3	65.3	65.3	57	49.7	0	0	---	0.00	29.971 
21:05	65.0	65.0	65.0	58	49.9	0	0	---	0.00	29.971 
21:10	64.5	64.5	64.5	59	49.8	0	0	---	0.00	29.971 
21:15	64.2	64.2	64.2	61	50.5	0	0	---	0.00	29.969 
21:20	63.9	63.9	63.9	61	50.2	0	0	---	0.00	29.969 
21:25	63.5	63.5	63.5	62	50.2	0	0	---	0.00	29.969 
21:30	63.2	63.2	63.2	63	50.4	0	0	---	0.00	29.976 
21:35	62.9	62.9	62.9	63	50.1	0	0	---	0.00	29.976 
21:40	62.6	62.6	62.6	64	50.2	0	0	---	0.00	29.976 
21:45	62.4	62.4	62.4	65	50.5	0	0	---	0.00	29.986 
21:50	62.1	62.1	62.1	66	50.6	0	0	---	0.00	29.986 
21:55	61.8	61.8	61.8	67	50.7	0	0	---	0.00	29.986 
22:00	61.6	61.6	61.6	67	50.5	0	0	---	0.00	29.994 
22:05	61.3	61.3	61.3	67	50.2	0	0	---	0.00	29.994 
22:10	61.2	61.2	61.2	68	50.5	0	0	---	0.00	29.994 
22:15	61.0	61.0	61.0	69	50.8	0	0	---	0.00	29.999 
22:20	60.9	60.9	60.9	69	50.7	0	0	---	0.00	29.999 
22:25	60.7	60.7	60.7	70	50.9	0	0	---	0.00	29.999 
22:30	60.5	60.5	60.5	71	51.0	0	0	---	0.00	29.999 
22:35	60.4	60.4	60.4	71	50.9	0	0	---	0.00	29.999 
22:40	60.2	60.2	60.2	72	51.1	0	0	---	0.00	29.999 
22:45	60.1	60.1	60.1	73	51.4	0	0	---	0.00	30.002 
22:50	59.9	59.9	59.9	73	51.2	0	0	---	0.00	30.002 
22:55	59.8	59.8	59.8	74	51.5	0	0	---	0.00	30.002 
23:00	59.6	59.6	59.6	75	51.7	0	0	---	0.00	29.999 
23:05	59.5	59.5	59.5	75	51.6	0	0	---	0.00	29.999 
23:10	59.3	59.3	59.3	77	52.1	0	1	270	0.00	29.999 
23:15	59.2	59.2	59.2	77	52.0	0	0	---	0.00	30.000 
23:20	59.2	59.2	59.2	77	52.0	0	0	---	0.00	30.000 
23:25	59.0	59.0	59.0	77	51.8	0	0	---	0.00	30.000 
23:30	58.9	58.9	58.9	78	52.0	0	0	---	0.00	29.999 
23:35	58.7	58.7	58.7	78	51.9	0	0	---	0.00	29.999 
23:40	58.6	58.6	58.6	79	52.1	0	0	---	0.00	29.999 
23:45	58.4	58.4	58.4	80	52.3	0	0	---	0.00	29.998 
23:50	58.3	58.3	58.3	80	52.2	0	0	---	0.00	29.998 
23:55	58.3	58.3	58.3	81	52.5	0	0	---	0.00	29.998 

CoCoRaHS
IN-AL-39
A2 Web Hosting
Creative Commons License
GoDaddy
search engine by freefind advanced

loaded 2018-12-19 10:26:24 • last modified 2010-11-18 10:43:29
Privacy PolicyDisclaimer
• wx.awcolley.com is powered by PmWiki v.2002016 •
• all content (unless otherwise noted) © 2018 A W Colley